Main page
METAR-TAF:

Airports :

Dortmund, Germany

Dortmund Airport

latitude: 51-31N, longitude: 007-37E, elevation: 127 m

Current weather observation

The report was made 33 minutes ago, at 05:50 UTC
Wind 1 kt from variable directions
Temperature 18°C
Humidity 88%
Pressure 1021 hPa
Visibility: 7000 m
Few clouds at a height of 800 ft
Scattered clouds at a height of 10000 ft

METAR: EDLW 260550Z VRB01KT 7000 FEW008 SCT100 18/16 Q1021

Time: 08:23 (06:23 UTC)

Forecast

The report was made 1 hour and 23 minutes ago, at 05:00 UTC
Forecast valid from 26 at 06 UTC to 27 at 06 UTC
Wind 3 kt from variable directions
Visibility 10 km or more
Scattered clouds at a height of 3500 ft
Temporary
from 26 at 12 UTC to 26 at 18 UTC
Wind 5 kt from the Northwest

TAF: EDLW 260500Z 2606/2706 VRB03KT 9999 SCT035 TEMPO 2612/2618 32005KT

METAR-TAF

Weather observations and forecasts of more than 4000 airports (METAR and TAF reports).

The available stations are represented by yellow and red dots on the map.

Hover mouse over dot to see the name of the station.

Then click to see weather observations and forecasts.

To change the map : click on the green buttons with a black cross to zoom in, on the green button with a dash to zoom out, or on the green arrows for adjacent maps.


METAR-TAF: